Time;durP1;ratioP1;P1;durP2;ratioP2;P2;SDS_P1;SDS_P2;PMS_P1;PMS_P2;Temp;Humidity;BMP_temperature;BMP_pressure;BME280_temperature;BME280_humidity;BME280_pressure;Samples;Min_cycle;Max_cycle;Signal;HPM_P1;HPM_P2
2024/04/14 00:00:41;;;;;;;6.70;4.68;;;19.80;84.00;;;;;;5463123;26;19995;-61
2024/04/14 00:03:08;;;;;;;11.23;5.10;;;19.70;84.00;;;;;;5493537;26;19991;-61
2024/04/14 00:05:34;;;;;;;6.85;4.50;;;19.70;84.10;;;;;;5464865;26;20005;-61
2024/04/14 00:08:00;;;;;;;8.43;4.95;;;19.70;84.20;;;;;;5464973;26;19995;-61
2024/04/14 00:10:25;;;;;;;6.88;4.68;;;19.70;84.30;;;;;;5493154;26;20048;-61
2024/04/14 00:12:51;;;;;;;7.20;5.35;;;19.60;84.40;;;;;;5462761;26;20003;-61
2024/04/14 00:15:17;;;;;;;8.65;5.10;;;19.60;84.50;;;;;;5464657;26;20290;-61
2024/04/14 00:17:44;;;;;;;10.65;4.90;;;19.60;84.70;;;;;;5464775;26;20010;-60
2024/04/14 00:20:11;;;;;;;7.75;5.25;;;19.50;84.70;;;;;;5462686;26;19999;-61
2024/04/14 00:22:37;;;;;;;6.05;4.72;;;19.40;84.80;;;;;;5462801;26;19999;-61
2024/04/14 00:25:03;;;;;;;7.10;5.45;;;19.40;85.00;;;;;;5462592;26;19995;-61
2024/04/14 00:27:28;;;;;;;10.50;4.80;;;19.40;85.00;;;;;;5464500;26;20140;-61
2024/04/14 00:29:54;;;;;;;8.23;4.70;;;19.40;85.10;;;;;;5464511;26;20003;-61
2024/04/14 00:32:19;;;;;;;6.63;4.60;;;19.30;85.20;;;;;;5462628;26;20052;-60
2024/04/14 00:34:45;;;;;;;7.50;4.80;;;19.30;85.10;;;;;;5492830;26;19995;-61
2024/04/14 00:37:11;;;;;;;8.68;5.22;;;19.30;85.10;;;;;;5492816;26;20003;-61
2024/04/14 00:39:36;;;;;;;10.38;4.93;;;19.30;85.20;;;;;;5462669;26;20403;-61
2024/04/14 00:42:02;;;;;;;10.90;4.88;;;19.30;85.20;;;;;;5462536;26;20002;-60
2024/04/14 00:44:28;;;;;;;8.88;5.43;;;19.30;85.30;;;;;;5462448;26;20002;-61
2024/04/14 00:46:54;;;;;;;8.27;4.72;;;19.20;85.30;;;;;;5462390;26;20010;-61
2024/04/14 00:49:20;;;;;;;10.95;5.10;;;19.20;85.30;;;;;;5462301;26;20006;-61
2024/04/14 00:51:46;;;;;;;8.25;4.10;;;19.20;85.30;;;;;;5492550;26;20002;-61
2024/04/14 00:54:17;;;;;;;6.63;4.78;;;19.10;85.40;;;;;;5492723;26;19999;-60
2024/04/14 00:56:44;;;;;;;7.30;4.55;;;19.10;85.40;;;;;;5433683;26;20075;-61
2024/04/14 00:59:09;;;;;;;5.60;4.13;;;19.10;85.40;;;;;;5492075;26;19991;-61
2024/04/14 01:01:36;;;;;;;7.45;4.70;;;19.00;85.60;;;;;;5492439;26;20010;-60
2024/04/14 01:04:02;;;;;;;9.18;4.70;;;19.00;85.70;;;;;;5492219;26;20014;-60
2024/04/14 01:06:27;;;;;;;9.10;4.47;;;18.90;85.70;;;;;;5462034;26;20075;-61
2024/04/14 01:08:53;;;;;;;6.93;4.72;;;19.00;85.90;;;;;;5463771;26;19994;-60
2024/04/14 01:11:18;;;;;;;6.78;4.28;;;18.90;85.80;;;;;;5461889;26;20002;-61
2024/04/14 01:13:47;;;;;;;7.22;4.97;;;18.90;85.90;;;;;;5461965;26;20005;-61
2024/04/14 01:16:13;;;;;;;8.07;4.50;;;18.80;85.90;;;;;;5431862;26;20003;-61
2024/04/14 01:18:38;;;;;;;7.38;4.43;;;18.80;86.00;;;;;;5461832;26;20075;-61
2024/04/14 01:21:05;;;;;;;8.50;4.28;;;18.80;86.20;;;;;;5461882;26;20371;-61
2024/04/14 01:23:31;;;;;;;7.63;4.20;;;18.80;86.20;;;;;;5431692;26;20306;-61
2024/04/14 01:25:57;;;;;;;5.65;4.55;;;18.70;86.20;;;;;;5461764;26;20001;-61
2024/04/14 01:28:22;;;;;;;5.70;3.95;;;18.70;86.20;;;;;;5463521;26;19994;-60
2024/04/14 01:30:48;;;;;;;8.07;4.45;;;18.70;86.30;;;;;;5492364;26;20018;-60
2024/04/14 01:33:15;;;;;;;6.38;4.43;;;18.60;86.30;;;;;;5461584;26;20367;-61
2024/04/14 01:35:41;;;;;;;7.68;4.63;;;18.60;86.40;;;;;;5463621;26;20022;-60
2024/04/14 01:38:06;;;;;;;10.70;4.60;;;18.60;86.50;;;;;;5431462;26;20406;-60
2024/04/14 01:40:32;;;;;;;7.55;3.95;;;18.60;86.60;;;;;;5461623;26;20036;-61
2024/04/14 01:42:57;;;;;;;9.40;4.60;;;18.60;86.70;;;;;;5461451;26;20013;-61
2024/04/14 01:45:23;;;;;;;4.25;3.70;;;18.50;86.70;;;;;;5461417;26;20147;-60
2024/04/14 01:47:49;;;;;;;6.55;3.88;;;18.50;86.80;;;;;;5463322;26;20006;-60
2024/04/14 01:50:15;;;;;;;7.22;4.13;;;18.50;86.80;;;;;;5463106;26;20002;-61
2024/04/14 01:52:41;;;;;;;8.38;4.13;;;18.40;86.80;;;;;;5461383;26;19998;-60
2024/04/14 01:55:07;;;;;;;6.55;4.00;;;18.40;87.00;;;;;;5463323;26;20023;-60
2024/04/14 01:57:33;;;;;;;4.32;3.50;;;18.40;87.20;;;;;;5461282;26;20330;-61
2024/04/14 01:59:59;;;;;;;5.43;3.97;;;18.40;87.30;;;;;;5461143;26;20034;-61
2024/04/14 02:02:24;;;;;;;6.15;4.03;;;18.30;87.40;;;;;;5463000;26;19995;-60
2024/04/14 02:04:50;;;;;;;8.80;3.95;;;18.30;87.50;;;;;;5461094;26;20068;-61
2024/04/14 02:07:16;;;;;;;6.72;4.07;;;18.30;87.50;;;;;;5461065;26;19999;-61
2024/04/14 02:09:41;;;;;;;7.13;3.90;;;18.20;87.60;;;;;;5460264;26;20387;-61
2024/04/14 02:12:07;;;;;;;7.85;4.00;;;18.20;87.50;;;;;;5459887;26;20078;-60
2024/04/14 02:14:33;;;;;;;5.35;4.10;;;18.20;87.70;;;;;;5499308;26;20456;-60
2024/04/14 02:16:58;;;;;;;7.50;3.75;;;18.20;87.80;;;;;;5497445;26;19998;-61
2024/04/14 02:19:24;;;;;;;5.93;4.20;;;18.20;87.80;;;;;;5499246;26;20005;-61
2024/04/14 02:21:49;;;;;;;6.50;3.53;;;18.10;87.90;;;;;;5497358;26;20051;-61
2024/04/14 02:24:15;;;;;;;4.88;3.67;;;18.10;87.90;;;;;;5497202;26;19995;-60
2024/04/14 02:26:41;;;;;;;6.63;3.63;;;18.10;88.00;;;;;;5466844;26;20381;-60
2024/04/14 02:29:07;;;;;;;6.80;3.67;;;18.00;88.00;;;;;;5499124;26;20001;-60
2024/04/14 02:31:32;;;;;;;9.25;4.00;;;18.00;88.10;;;;;;5499067;26;20039;-60
2024/04/14 02:33:58;;;;;;;8.65;3.70;;;18.00;88.20;;;;;;5497180;26;19994;-60
2024/04/14 02:36:27;;;;;;;7.30;4.30;;;18.00;88.20;;;;;;5499246;26;19991;-61
2024/04/14 02:38:52;;;;;;;6.85;3.97;;;17.90;88.20;;;;;;5497153;26;19998;-60
2024/04/14 02:41:18;;;;;;;12.35;3.92;;;17.90;88.30;;;;;;5497245;26;19991;-61
2024/04/14 02:43:44;;;;;;;6.13;4.05;;;17.90;88.40;;;;;;5498859;26;20010;-60
2024/04/14 02:46:10;;;;;;;4.55;3.50;;;17.90;88.50;;;;;;5499029;26;20008;-60
2024/04/14 02:48:35;;;;;;;4.63;3.55;;;17.90;88.50;;;;;;5496638;26;20393;-61
2024/04/14 02:51:01;;;;;;;5.22;3.70;;;17.90;88.50;;;;;;5496609;26;20301;-61
2024/04/14 02:53:28;;;;;;;5.50;4.07;;;17.80;88.50;;;;;;5498624;26;20005;-61
2024/04/14 02:55:54;;;;;;;9.00;3.83;;;17.90;88.50;;;;;;5496834;26;20096;-60
2024/04/14 02:58:19;;;;;;;6.07;4.30;;;17.80;88.60;;;;;;5496610;26;20002;-60
2024/04/14 03:00:45;;;;;;;4.13;3.67;;;17.80;88.70;;;;;;5496901;26;20009;-60
2024/04/14 03:03:11;;;;;;;5.63;3.88;;;17.70;88.80;;;;;;5496692;26;20034;-60
2024/04/14 03:05:36;;;;;;;6.13;3.90;;;17.70;89.00;;;;;;5496538;26;20006;-61
2024/04/14 03:08:05;;;;;;;6.70;3.85;;;17.70;89.70;;;;;;5496511;26;20002;-59
2024/04/14 03:10:34;;;;;;;12.43;4.22;;;17.60;89.10;;;;;;5498511;26;20066;-62
2024/04/14 03:12:59;;;;;;;8.07;3.95;;;17.60;89.10;;;;;;5498393;26;19998;-61
2024/04/14 03:15:25;;;;;;;7.82;4.10;;;17.60;89.20;;;;;;5496267;26;20039;-61
2024/04/14 03:17:50;;;;;;;6.78;3.80;;;17.60;89.20;;;;;;5498242;26;20461;-61
2024/04/14 03:20:16;;;;;;;5.65;3.97;;;17.60;89.30;;;;;;5465973;26;19998;-61
2024/04/14 03:22:41;;;;;;;6.78;4.30;;;17.50;89.40;;;;;;5468078;26;20013;-60
2024/04/14 03:25:08;;;;;;;8.05;4.57;;;17.50;89.50;;;;;;5500021;26;19994;-61
2024/04/14 03:27:34;;;;;;;8.70;4.05;;;17.50;89.50;;;;;;5501933;26;20090;-60
2024/04/14 03:29:59;;;;;;;6.90;3.80;;;17.50;89.60;;;;;;5499643;26;20014;-60
2024/04/14 03:32:25;;;;;;;6.82;4.53;;;17.50;89.70;;;;;;5499794;26;20002;-60
2024/04/14 03:34:53;;;;;;;6.97;4.25;;;17.40;89.70;;;;;;5501517;26;19990;-61
2024/04/14 03:37:19;;;;;;;5.47;4.00;;;17.40;89.70;;;;;;5501572;26;20097;-61
2024/04/14 03:39:44;;;;;;;6.88;3.90;;;17.40;89.80;;;;;;5499722;26;20533;-61
2024/04/14 03:42:10;;;;;;;5.97;4.10;;;17.40;89.80;;;;;;5501597;26;20048;-60
2024/04/14 03:44:36;;;;;;;7.38;3.80;;;17.30;89.90;;;;;;5499703;26;20000;-60
2024/04/14 03:47:02;;;;;;;5.18;3.50;;;17.30;89.90;;;;;;5501566;26;19998;-60
2024/04/14 03:49:27;;;;;;;5.28;3.45;;;17.30;90.00;;;;;;5501235;26;20111;-60
2024/04/14 03:51:53;;;;;;;5.80;3.40;;;17.30;90.00;;;;;;5499707;26;19993;-60
2024/04/14 03:54:18;;;;;;;8.05;3.97;;;17.20;90.00;;;;;;5493759;26;19998;-61
2024/04/14 03:56:44;;;;;;;8.55;3.83;;;17.20;90.00;;;;;;5428416;26;19996;-60
2024/04/14 03:59:11;;;;;;;7.88;4.10;;;17.20;90.00;;;;;;5427262;26;20320;-60
2024/04/14 04:01:36;;;;;;;5.65;3.50;;;17.20;90.00;;;;;;5427083;26;20006;-60
2024/04/14 04:04:02;;;;;;;5.60;3.42;;;17.10;90.00;;;;;;5439196;26;20283;-60
2024/04/14 04:06:27;;;;;;;6.50;3.72;;;17.10;90.00;;;;;;5428966;26;20446;-60
2024/04/14 04:08:53;;;;;;;6.78;3.40;;;17.10;90.00;;;;;;5426577;26;20295;-60
2024/04/14 04:11:19;;;;;;;5.10;3.55;;;17.10;90.00;;;;;;5428768;26;20062;-60
2024/04/14 04:13:44;;;;;;;7.13;3.20;;;17.00;90.00;;;;;;5428542;26;19991;-60
2024/04/14 04:16:10;;;;;;;5.35;3.42;;;17.00;90.00;;;;;;5428684;26;19991;-60
2024/04/14 04:18:36;;;;;;;6.18;3.30;;;17.00;90.10;;;;;;5428625;26;20085;-60
2024/04/14 04:21:03;;;;;;;4.97;3.08;;;16.90;90.10;;;;;;5428892;26;19996;-60
2024/04/14 04:23:28;;;;;;;5.47;3.13;;;17.00;90.10;;;;;;5426654;26;19999;-60
2024/04/14 04:25:58;;;;;;;4.22;3.13;;;16.90;90.10;;;;;;5426714;26;20003;-60
2024/04/14 04:28:23;;;;;;;3.60;3.15;;;16.90;90.10;;;;;;5456655;26;20020;-60
2024/04/14 04:30:50;;;;;;;6.45;3.25;;;16.90;90.00;;;;;;5429924;26;20045;-61
2024/04/14 04:33:15;;;;;;;5.93;3.13;;;16.90;90.00;;;;;;5419531;26;19995;-61
2024/04/14 04:35:53;;;;;;;6.22;3.25;;;16.90;90.10;;;;;;5426445;26;20081;-60
2024/04/14 04:38:18;;;;;;;5.10;2.92;;;16.80;90.10;;;;;;5428394;26;20013;-60
2024/04/14 04:40:44;;;;;;;5.05;3.10;;;16.80;90.10;;;;;;5429103;26;19991;-60
2024/04/14 04:43:10;;;;;;;6.72;3.20;;;16.80;90.10;;;;;;5428258;26;20135;-61
2024/04/14 04:45:35;;;;;;;4.60;2.80;;;16.80;90.10;;;;;;5428260;26;20399;-60
2024/04/14 04:48:01;;;;;;;3.38;2.85;;;16.70;90.10;;;;;;5426257;26;20015;-60
2024/04/14 04:50:26;;;;;;;3.88;2.70;;;16.70;90.10;;;;;;5427290;26;20002;-60
2024/04/14 04:52:52;;;;;;;4.22;3.03;;;16.70;90.10;;;;;;5456100;26;20483;-60
2024/04/14 04:55:17;;;;;;;4.30;2.90;;;16.70;90.40;;;;;;5427946;26;20019;-60
2024/04/14 04:57:43;;;;;;;5.13;3.15;;;16.60;90.20;;;;;;5428102;26;19996;-60
2024/04/14 05:00:09;;;;;;;4.05;2.38;;;16.60;90.20;;;;;;5426124;26;19988;-60
2024/04/14 05:02:35;;;;;;;6.22;3.08;;;16.60;90.20;;;;;;5486438;26;19991;-61
2024/04/14 05:05:00;;;;;;;3.83;2.97;;;16.60;90.20;;;;;;5426088;26;19999;-60
2024/04/14 05:07:27;;;;;;;4.03;3.10;;;16.60;90.30;;;;;;5426117;26;20046;-60
2024/04/14 05:09:53;;;;;;;5.18;2.53;;;16.50;90.30;;;;;;5427758;26;20013;-62
2024/04/14 05:12:18;;;;;;;4.90;2.85;;;16.50;90.30;;;;;;5486615;26;19987;-61
2024/04/14 05:14:44;;;;;;;2.95;2.63;;;16.50;90.30;;;;;;5427807;26;20008;-61
2024/04/14 05:17:10;;;;;;;3.25;2.75;;;16.50;90.30;;;;;;5427961;26;19988;-60
2024/04/14 05:19:35;;;;;;;4.63;3.15;;;16.50;90.30;;;;;;5425782;26;20000;-60
2024/04/14 05:22:01;;;;;;;5.70;3.10;;;16.50;90.40;;;;;;5427899;26;20004;-60
2024/04/14 05:24:26;;;;;;;5.65;2.92;;;16.40;90.40;;;;;;5425855;26;20106;-60
2024/04/14 05:26:52;;;;;;;7.70;3.17;;;16.40;90.40;;;;;;5425862;26;19991;-60
2024/04/14 05:29:18;;;;;;;7.32;2.78;;;16.40;90.40;;;;;;5427669;26;20395;-61
2024/04/14 05:31:43;;;;;;;5.18;2.50;;;16.40;90.40;;;;;;5427526;26;20002;-60
2024/04/14 05:34:09;;;;;;;4.82;3.00;;;16.40;90.40;;;;;;5396039;26;20004;-60
2024/04/14 05:36:34;;;;;;;3.65;2.72;;;16.40;90.40;;;;;;5427718;26;20042;-60
2024/04/14 05:39:00;;;;;;;7.05;2.90;;;16.40;90.50;;;;;;5425460;26;20065;-60
2024/04/14 05:41:26;;;;;;;5.00;2.80;;;16.30;90.50;;;;;;5427515;26;19988;-60
2024/04/14 05:43:51;;;;;;;5.28;2.40;;;16.30;90.50;;;;;;5427306;26;19995;-60
2024/04/14 05:46:17;;;;;;;5.80;2.72;;;16.30;90.50;;;;;;5425308;26;20003;-60
2024/04/14 05:48:42;;;;;;;4.70;2.80;;;16.30;90.50;;;;;;5427186;26;20053;-60
2024/04/14 05:51:08;;;;;;;4.70;3.00;;;16.30;90.60;;;;;;5427566;26;19995;-60
2024/04/14 05:53:33;;;;;;;4.00;2.60;;;16.30;90.60;;;;;;5425224;26;19995;-60
2024/04/14 05:55:59;;;;;;;7.60;2.80;;;16.30;90.60;;;;;;5427420;26;20001;-60
2024/04/14 05:58:25;;;;;;;4.55;2.60;;;16.20;90.60;;;;;;5425183;26;20012;-60
2024/04/14 06:00:50;;;;;;;5.13;2.40;;;16.20;90.50;;;;;;5455105;26;19999;-60
2024/04/14 06:03:16;;;;;;;5.63;2.80;;;16.20;90.60;;;;;;5427142;26;19991;-60
2024/04/14 06:05:42;;;;;;;4.28;2.80;;;16.20;90.60;;;;;;5427094;26;20065;-60
2024/04/14 06:08:08;;;;;;;3.38;2.53;;;16.30;90.60;;;;;;5427003;26;19992;-60
2024/04/14 06:10:34;;;;;;;4.15;2.53;;;16.30;90.60;;;;;;5424888;26;19991;-60
2024/04/14 06:12:59;;;;;;;3.28;2.85;;;16.20;90.60;;;;;;5426876;26;20010;-60
2024/04/14 06:15:25;;;;;;;3.53;2.50;;;16.20;90.60;;;;;;5424899;26;20041;-60
2024/04/14 06:17:50;;;;;;;5.05;2.90;;;16.20;90.60;;;;;;5427007;26;19992;-60
2024/04/14 06:20:16;;;;;;;5.05;2.75;;;16.20;90.60;;;;;;5424932;26;19992;-60
2024/04/14 06:22:42;;;;;;;7.55;2.80;;;16.20;90.60;;;;;;5424878;26;19991;-60
2024/04/14 06:25:07;;;;;;;4.32;2.75;;;16.20;90.60;;;;;;5426626;26;20064;-60
2024/04/14 06:27:33;;;;;;;6.82;2.92;;;16.20;90.60;;;;;;5454741;26;19996;-60
2024/04/14 06:29:58;;;;;;;5.82;2.83;;;16.20;90.60;;;;;;5426644;26;19998;-60
2024/04/14 06:32:24;;;;;;;5.75;3.17;;;16.20;90.60;;;;;;5424811;26;20408;-60
2024/04/14 06:34:50;;;;;;;5.35;2.92;;;16.20;90.60;;;;;;5426572;26;20414;-60
2024/04/14 06:37:15;;;;;;;3.40;2.60;;;16.20;90.60;;;;;;5395124;26;20004;-60
2024/04/14 06:39:41;;;;;;;4.32;2.38;;;16.20;90.60;;;;;;5424452;26;19995;-60
2024/04/14 06:42:07;;;;;;;4.80;3.15;;;16.20;90.60;;;;;;5424634;26;20137;-60
2024/04/14 06:44:33;;;;;;;5.22;2.70;;;16.20;90.60;;;;;;5454232;26;19991;-60
2024/04/14 06:46:59;;;;;;;3.78;2.60;;;16.20;90.50;;;;;;5426414;26;19987;-60
2024/04/14 06:49:24;;;;;;;4.57;2.80;;;16.30;90.50;;;;;;5424322;26;19991;-60
2024/04/14 06:51:50;;;;;;;4.25;3.03;;;16.20;90.50;;;;;;5426170;26;19992;-60
2024/04/14 06:54:16;;;;;;;5.35;2.67;;;16.20;90.50;;;;;;5426106;26;19999;-60
2024/04/14 06:56:41;;;;;;;4.68;2.55;;;16.20;90.50;;;;;;5427133;26;20366;-60
2024/04/14 06:59:07;;;;;;;5.25;2.58;;;16.20;90.40;;;;;;5429524;26;20004;-61
2024/04/14 07:01:33;;;;;;;2.90;2.08;;;16.20;90.40;;;;;;5429735;26;19992;-60
2024/04/14 07:03:58;;;;;;;3.72;2.38;;;16.20;90.40;;;;;;5429533;26;20007;-60
2024/04/14 07:06:24;;;;;;;4.85;2.40;;;16.30;90.40;;;;;;5429672;26;20003;-60
2024/04/14 07:08:49;;;;;;;5.18;2.42;;;16.20;90.40;;;;;;5429443;26;20002;-60
2024/04/14 07:11:15;;;;;;;3.88;2.40;;;16.20;90.30;;;;;;5457808;26;19995;-60
2024/04/14 07:13:41;;;;;;;4.65;2.70;;;16.20;90.30;;;;;;5464458;26;19990;-60
2024/04/14 07:16:07;;;;;;;5.00;2.30;;;16.20;90.30;;;;;;5465798;26;20429;-60
2024/04/14 07:18:33;;;;;;;3.60;2.40;;;16.20;90.20;;;;;;5464803;26;20002;-60
2024/04/14 07:21:02;;;;;;;4.57;2.25;;;16.30;90.20;;;;;;5463312;26;20271;-60
2024/04/14 07:23:30;;;;;;;4.15;2.30;;;16.30;90.10;;;;;;5433743;26;19987;-60
2024/04/14 07:25:56;;;;;;;3.42;2.35;;;16.30;90.10;;;;;;5463561;26;19991;-61
2024/04/14 07:28:22;;;;;;;3.88;2.17;;;16.30;90.40;;;;;;5465296;26;20340;-60
2024/04/14 07:30:48;;;;;;;4.53;2.20;;;16.30;90.10;;;;;;5465418;26;20406;-60
2024/04/14 07:33:14;;;;;;;4.28;2.38;;;16.30;90.00;;;;;;5464573;26;20011;-60
2024/04/14 07:35:40;;;;;;;4.93;2.25;;;16.30;90.00;;;;;;5465533;26;19991;-60
2024/04/14 07:38:06;;;;;;;2.78;2.25;;;16.30;89.80;;;;;;5463363;26;20006;-61
2024/04/14 07:40:32;;;;;;;4.15;2.15;;;16.30;89.80;;;;;;5433501;26;20203;-60
2024/04/14 07:42:57;;;;;;;3.50;1.98;;;16.30;89.70;;;;;;5463340;26;20068;-60
2024/04/14 07:45:23;;;;;;;4.70;2.15;;;16.30;89.60;;;;;;5465040;26;20041;-60
2024/04/14 07:47:49;;;;;;;2.63;2.10;;;16.30;89.50;;;;;;5465171;26;20040;-60
2024/04/14 07:50:14;;;;;;;2.50;1.77;;;16.30;89.50;;;;;;5462770;26;19995;-61
2024/04/14 07:52:40;;;;;;;3.38;2.17;;;16.30;89.40;;;;;;5464983;26;19991;-60
2024/04/14 07:55:06;;;;;;;3.03;2.00;;;16.30;89.30;;;;;;5463061;26;19999;-60
2024/04/14 07:57:31;;;;;;;2.63;2.03;;;16.30;89.20;;;;;;5464814;26;19990;-60
2024/04/14 07:59:57;;;;;;;3.25;1.60;;;16.30;88.90;;;;;;5462804;26;19995;-61
2024/04/14 08:02:23;;;;;;;3.40;1.98;;;16.30;88.70;;;;;;5462878;26;20003;-60
2024/04/14 08:04:49;;;;;;;4.32;1.60;;;16.40;88.60;;;;;;5462816;26;20075;-60
2024/04/14 08:07:15;;;;;;;3.60;1.88;;;16.40;88.40;;;;;;5462699;26;20006;-60
2024/04/14 08:09:41;;;;;;;3.28;1.90;;;16.40;88.50;;;;;;5462835;26;20011;-60
2024/04/14 08:12:06;;;;;;;3.40;2.15;;;16.40;88.50;;;;;;5462456;26;19991;-60
2024/04/14 08:14:32;;;;;;;3.60;1.80;;;16.40;88.30;;;;;;5462672;26;20007;-60
2024/04/14 08:16:58;;;;;;;5.50;2.08;;;16.40;88.20;;;;;;5430586;26;19991;-60
2024/04/14 08:19:23;;;;;;;4.22;2.00;;;16.40;88.10;;;;;;5449597;26;20052;-60
2024/04/14 08:21:49;;;;;;;14.23;2.72;;;16.50;87.90;;;;;;5431596;26;20302;-60
2024/04/14 08:24:14;;;;;;;5.05;2.00;;;16.40;87.50;;;;;;5461567;26;20010;-60
2024/04/14 08:26:40;;;;;;;4.20;1.65;;;16.40;87.40;;;;;;5446384;26;19999;-60
2024/04/14 08:29:06;;;;;;;5.00;1.65;;;16.50;87.10;;;;;;5428369;26;19999;-60
2024/04/14 08:31:31;;;;;;;6.07;1.95;;;16.50;86.70;;;;;;5429413;26;20014;-60
2024/04/14 08:33:57;;;;;;;10.25;2.60;;;16.60;86.70;;;;;;5463181;26;20014;-60
2024/04/14 08:36:23;;;;;;;5.32;2.00;;;16.60;86.50;;;;;;5429891;26;20003;-60
2024/04/14 08:38:51;;;;;;;8.85;1.83;;;16.60;86.10;;;;;;5430682;26;20010;-60
2024/04/14 08:41:18;;;;;;;5.65;2.00;;;16.70;86.00;;;;;;5463590;26;20007;-60
2024/04/14 08:43:43;;;;;;;5.45;1.70;;;16.70;85.80;;;;;;5460528;26;19998;-60
2024/04/14 08:46:10;;;;;;;6.30;1.60;;;16.80;85.60;;;;;;5431045;26;20493;-60
2024/04/14 08:48:36;;;;;;;30.02;4.13;;;16.80;85.70;;;;;;5421662;26;20070;-60
2024/04/14 08:51:02;;;;;;;12.05;2.33;;;16.90;85.80;;;;;;5487059;26;19998;-60
2024/04/14 08:53:27;;;;;;;11.95;3.08;;;17.00;85.80;;;;;;5451101;26;20043;-60
2024/04/14 08:55:53;;;;;;;6.28;2.17;;;17.00;85.90;;;;;;5425183;26;20418;-60
2024/04/14 08:58:20;;;;;;;2.40;1.35;;;17.10;86.10;;;;;;5447195;26;19999;-60
2024/04/14 09:00:47;;;;;;;64.60;7.07;;;17.10;86.10;;;;;;5483263;26;20013;-61
2024/04/14 09:03:13;;;;;;;9.48;2.17;;;17.20;86.20;;;;;;5473818;26;20016;-60
2024/04/14 09:05:38;;;;;;;19.67;2.80;;;17.30;85.90;;;;;;5445967;26;19995;-60
2024/04/14 09:08:04;;;;;;;10.88;2.53;;;17.40;85.70;;;;;;5491027;26;20017;-60
2024/04/14 09:10:30;;;;;;;37.50;5.65;;;17.40;85.20;;;;;;5460902;26;20063;-61
2024/04/14 09:12:55;;;;;;;24.83;4.40;;;17.50;85.90;;;;;;5466177;26;20418;-61
2024/04/14 09:15:21;;;;;;;19.42;3.78;;;17.60;85.00;;;;;;5467808;26;19994;-60
2024/04/14 09:17:47;;;;;;;20.73;3.90;;;17.60;84.70;;;;;;5455617;26;20302;-60
2024/04/14 09:20:13;;;;;;;41.55;5.88;;;17.60;84.30;;;;;;5457838;26;20052;-60
2024/04/14 09:22:38;;;;;;;46.65;5.13;;;17.70;84.10;;;;;;5452525;26;20002;-60
2024/04/14 09:25:07;;;;;;;28.40;4.10;;;17.70;83.90;;;;;;5461152;26;20007;-60
2024/04/14 09:27:34;;;;;;;83.97;9.20;;;17.80;83.60;;;;;;5456738;26;19994;-60
2024/04/14 09:30:18;;;;;;;54.35;7.05;;;17.80;83.10;;;;;;5461694;26;19995;-60
2024/04/14 09:32:44;;;;;;;33.08;4.72;;;17.90;83.20;;;;;;5444441;26;19996;-60
2024/04/14 09:35:10;;;;;;;54.63;6.85;;;17.90;82.90;;;;;;5464982;26;20013;-61
2024/04/14 09:37:38;;;;;;;68.13;8.65;;;18.00;82.80;;;;;;5442453;26;20057;-61
2024/04/14 09:40:06;;;;;;;60.42;8.05;;;18.00;83.10;;;;;;5473569;26;20013;-60
2024/04/14 09:42:32;;;;;;;96.10;9.63;;;18.10;83.20;;;;;;5463012;26;20005;-61
2024/04/14 09:44:59;;;;;;;79.82;9.13;;;18.10;83.00;;;;;;5441164;26;19998;-61
2024/04/14 09:47:24;;;;;;;111.93;13.43;;;18.20;82.90;;;;;;5458791;26;20049;-60
2024/04/14 09:49:50;;;;;;;69.22;7.78;;;18.20;82.60;;;;;;5452372;26;20003;-60
2024/04/14 09:52:16;;;;;;;200.07;23.13;;;18.30;82.30;;;;;;5470560;26;20007;-61
2024/04/14 09:54:43;;;;;;;42.55;7.93;;;18.30;82.30;;;;;;5425683;26;20002;-60
2024/04/14 09:57:09;;;;;;;48.88;7.43;;;18.40;81.60;;;;;;5450341;26;20002;-60
2024/04/14 09:59:34;;;;;;;112.90;13.93;;;18.50;81.20;;;;;;5469054;26;19998;-60
2024/04/14 10:02:01;;;;;;;130.02;13.95;;;18.50;81.20;;;;;;5454318;26;19998;-60
2024/04/14 10:04:27;;;;;;;81.40;10.07;;;18.50;81.00;;;;;;5456275;26;20018;-60
2024/04/14 10:06:52;;;;;;;112.82;12.07;;;18.60;81.40;;;;;;5457933;26;19999;-60
2024/04/14 10:09:18;;;;;;;121.22;10.45;;;18.60;80.90;;;;;;5436601;26;21403;-61
2024/04/14 10:11:45;;;;;;;117.32;12.00;;;18.70;80.30;;;;;;5437482;26;20031;-61
2024/04/14 10:14:14;;;;;;;104.28;11.82;;;18.80;80.10;;;;;;5425663;26;20010;-61
2024/04/14 10:16:39;;;;;;;90.90;10.27;;;18.80;80.00;;;;;;5429450;26;20011;-60
2024/04/14 10:19:08;;;;;;;123.75;12.02;;;18.90;79.70;;;;;;5449828;26;19995;-60
2024/04/14 10:21:33;;;;;;;115.22;11.93;;;19.00;80.10;;;;;;5459628;26;20000;-61
2024/04/14 10:24:02;;;;;;;158.02;15.70;;;19.00;80.40;;;;;;5448977;26;20022;-60
2024/04/14 10:26:29;;;;;;;206.45;18.27;;;19.00;80.00;;;;;;5422017;26;20427;-61
2024/04/14 10:28:55;;;;;;;157.07;16.17;;;19.10;80.20;;;;;;5430908;26;20411;-61
2024/04/14 10:31:51;;;;;;;171.80;18.50;;;19.10;80.10;;;;;;5453984;26;20007;-61
2024/04/14 10:34:23;;;;;;;203.60;21.50;;;19.20;79.80;;;;;;5465685;26;20007;-61
2024/04/14 10:36:58;;;;;;;177.80;17.42;;;19.20;79.80;;;;;;5428153;26;20071;-60
2024/04/14 10:39:24;;;;;;;206.63;18.38;;;19.30;79.60;;;;;;5462706;26;20040;-61
2024/04/14 10:41:50;;;;;;;232.32;22.88;;;19.40;79.50;;;;;;5460198;26;19995;-60
2024/04/14 10:44:16;;;;;;;358.63;33.97;;;19.40;79.70;;;;;;5457718;26;20013;-61
2024/04/14 10:46:42;;;;;;;237.18;24.77;;;19.60;79.50;;;;;;5466246;26;20023;-60
2024/04/14 10:49:08;;;;;;;154.55;15.90;;;19.60;79.30;;;;;;5448792;26;20015;-62
2024/04/14 10:51:35;;;;;;;150.30;17.17;;;19.70;79.00;;;;;;5428135;26;20015;-61
2024/04/14 10:54:01;;;;;;;108.13;12.07;;;19.70;78.90;;;;;;5441156;26;20480;-61
2024/04/14 10:56:27;;;;;;;125.15;12.60;;;19.80;78.50;;;;;;5453694;26;20087;-61
2024/04/14 10:58:53;;;;;;;97.65;10.90;;;19.80;78.40;;;;;;5425173;26;20003;-61
2024/04/14 11:01:19;;;;;;;112.25;12.05;;;19.90;78.20;;;;;;5470545;26;20007;-60
2024/04/14 11:03:44;;;;;;;134.30;16.10;;;19.90;78.30;;;;;;5459932;26;20013;-61
2024/04/14 11:06:10;;;;;;;103.88;11.35;;;20.00;78.30;;;;;;5430440;26;20007;-61
2024/04/14 11:08:38;;;;;;;144.02;14.18;;;20.10;78.00;;;;;;5447975;26;20403;-61
2024/04/14 11:11:04;;;;;;;132.60;14.15;;;20.00;77.30;;;;;;5487680;26;19990;-60
2024/04/14 11:13:30;;;;;;;178.50;17.92;;;20.20;77.30;;;;;;5449067;26;20009;-61
2024/04/14 11:15:59;;;;;;;163.93;17.98;;;20.30;77.70;;;;;;5463586;26;19996;-61
2024/04/14 11:18:31;;;;;;;163.23;16.67;;;20.30;77.00;;;;;;5455117;26;20014;-61
2024/04/14 11:20:56;;;;;;;132.85;13.32;;;20.40;76.70;;;;;;5420188;26;20061;-61
2024/04/14 11:23:22;;;;;;;140.02;13.57;;;20.50;76.50;;;;;;5453324;26;20019;-61
2024/04/14 11:25:51;;;;;;;116.25;13.15;;;20.50;76.00;;;;;;5440042;26;20010;-61
2024/04/14 11:28:17;;;;;;;181.02;19.27;;;20.60;76.10;;;;;;5463839;26;19999;-61
2024/04/14 11:30:42;;;;;;;242.27;25.27;;;20.70;75.70;;;;;;5460053;26;20419;-60
2024/04/14 11:33:08;;;;;;;176.73;18.75;;;20.80;75.70;;;;;;5419615;26;19995;-61
2024/04/14 11:35:34;;;;;;;143.15;16.50;;;20.80;75.20;;;;;;5423765;26;20002;-61
2024/04/14 11:37:59;;;;;;;146.02;15.07;;;20.90;74.80;;;;;;5426888;26;20039;-61
2024/04/14 11:40:25;;;;;;;148.32;16.60;;;21.00;74.70;;;;;;5445599;26;20003;-61
2024/04/14 11:42:51;;;;;;;279.08;29.10;;;21.10;74.50;;;;;;5449606;26;20003;-60
2024/04/14 11:45:17;;;;;;;205.20;21.13;;;21.20;74.80;;;;;;5433859;26;20057;-61
2024/04/14 11:47:42;;;;;;;220.52;25.80;;;21.20;74.40;;;;;;5448782;26;19999;-61
2024/04/14 11:50:09;;;;;;;173.55;19.20;;;21.30;75.00;;;;;;5432461;26;20003;-61
2024/04/14 11:52:34;;;;;;;252.40;29.38;;;21.40;74.20;;;;;;5445033;26;20000;-60
2024/04/14 11:55:03;;;;;;;208.85;22.67;;;21.50;74.00;;;;;;5414359;26;19994;-60
2024/04/14 11:57:29;;;;;;;129.85;15.88;;;21.60;73.60;;;;;;5444272;26;20203;-60
2024/04/14 11:59:54;;;;;;;133.23;15.32;;;21.60;73.20;;;;;;5445245;26;20126;-60
2024/04/14 12:02:21;;;;;;;163.95;15.43;;;21.70;73.00;;;;;;5468991;26;20002;-60
2024/04/14 12:04:48;;;;;;;220.13;24.08;;;21.80;72.70;;;;;;5467010;26;19994;-61
2024/04/14 12:07:14;;;;;;;158.45;18.70;;;21.90;72.90;;;;;;5463993;26;20013;-61
2024/04/14 12:09:40;;;;;;;183.40;18.13;;;22.00;72.80;;;;;;5458501;26;20011;-61
2024/04/14 12:12:06;;;;;;;241.98;22.15;;;22.00;72.60;;;;;;5460074;26;20031;-61
2024/04/14 12:14:31;;;;;;;225.57;23.00;;;22.20;72.70;;;;;;5460761;26;20010;-61
2024/04/14 12:16:59;;;;;;;230.52;23.02;;;22.20;72.60;;;;;;5427061;26;19999;-61
2024/04/14 12:19:25;;;;;;;201.63;23.08;;;22.40;72.30;;;;;;5456733;26;20102;-61
2024/04/14 12:21:50;;;;;;;241.73;23.13;;;22.40;72.30;;;;;;5451477;26;20087;-61
2024/04/14 12:24:17;;;;;;;216.32;22.48;;;22.50;72.20;;;;;;5456661;26;19995;-60
2024/04/14 12:26:44;;;;;;;222.43;21.92;;;22.50;71.90;;;;;;5444831;26;20002;-61
2024/04/14 12:29:10;;;;;;;265.27;26.33;;;22.70;71.80;;;;;;5435112;26;20007;-61
2024/04/14 12:31:35;;;;;;;256.60;26.02;;;22.80;71.50;;;;;;5445749;26;20010;-61
2024/04/14 12:34:01;;;;;;;181.02;21.33;;;22.90;71.20;;;;;;5456082;26;20010;-61